Heron Lake, Minnesota
Current Conditions -  °F | °C
As of 7:14 AM on Thursday 30 Oct 2014 (Local Time) from KMWM Reporting Station
Broken Clouds Broken Clouds  
Wind Chill: 39°   Ceiling: 9500
Heat Index: 39°   Visibility: 10mi
Dew Point: 34°   Wind: 3mph
Humidity: 81%   Direction: 130°SE
Pressure: 29.99"   Gusts: NA
Location:  43.79°N, 95.32°W
Report Text: KMWM 301214Z AUTO 13003KT 10SM BKN095 04/01 A2999 RMK AO2
Loading
Personal Weather Stations






























Interactive Weather Map
Tropical Storm Tracking
New forecast layout! Learn more

10-Day Weather Forecast

Advertisements
Track Severe Weather on mobile